sensor_id;sensor_type;location;lat;lon;timestamp;temperature;humidity
30134;DHT22;16946;49.984;10.672;2023-04-25T00:00:14;9.50;99.90
30134;DHT22;16946;49.984;10.672;2023-04-25T00:00:45;9.50;99.90
30134;DHT22;16946;49.984;10.672;2023-04-25T00:01:15;9.50;99.90
30134;DHT22;16946;49.984;10.672;2023-04-25T00:01:46;9.50;99.90
30134;DHT22;16946;49.984;10.672;2023-04-25T00:02:17;9.50;99.90
30134;DHT22;16946;49.984;10.672;2023-04-25T00:02:48;9.40;99.90
30134;DHT22;16946;49.984;10.672;2023-04-25T00:03:18;9.40;99.90
30134;DHT22;16946;49.984;10.672;2023-04-25T00:03:49;9.50;99.90
30134;DHT22;16946;49.984;10.672;2023-04-25T00:04:20;9.50;99.90
30134;DHT22;16946;49.984;10.672;2023-04-25T00:04:51;9.50;99.90
30134;DHT22;16946;49.984;10.672;2023-04-25T00:05:23;9.50;99.90
30134;DHT22;16946;49.984;10.672;2023-04-25T00:05:54;9.50;99.90
30134;DHT22;16946;49.984;10.672;2023-04-25T00:06:26;9.50;99.90
30134;DHT22;16946;49.984;10.672;2023-04-25T00:06:57;9.50;99.90
30134;DHT22;16946;49.984;10.672;2023-04-25T00:07:28;9.50;99.90
30134;DHT22;16946;49.984;10.672;2023-04-25T00:07:58;9.50;99.90
30134;DHT22;16946;49.984;10.672;2023-04-25T00:08:29;9.60;99.90
30134;DHT22;16946;49.984;10.672;2023-04-25T00:09:00;9.60;99.90
30134;DHT22;16946;49.984;10.672;2023-04-25T00:09:31;9.60;99.90
30134;DHT22;16946;49.984;10.672;2023-04-25T00:10:03;9.60;99.90
30134;DHT22;16946;49.984;10.672;2023-04-25T00:10:33;9.60;99.90
30134;DHT22;16946;49.984;10.672;2023-04-25T00:11:04;9.50;99.90
30134;DHT22;16946;49.984;10.672;2023-04-25T00:11:35;9.60;99.90
30134;DHT22;16946;49.984;10.672;2023-04-25T00:12:07;9.50;99.90
30134;DHT22;16946;49.984;10.672;2023-04-25T00:12:37;9.50;99.90
30134;DHT22;16946;49.984;10.672;2023-04-25T00:13:09;9.50;99.90
30134;DHT22;16946;49.984;10.672;2023-04-25T00:13:41;9.50;99.90
30134;DHT22;16946;49.984;10.672;2023-04-25T00:14:12;9.50;99.90
30134;DHT22;16946;49.984;10.672;2023-04-25T00:14:42;9.40;99.90
30134;DHT22;16946;49.984;10.672;2023-04-25T00:15:13;9.40;99.90
30134;DHT22;16946;49.984;10.672;2023-04-25T00:15:43;9.40;99.90
30134;DHT22;16946;49.984;10.672;2023-04-25T00:16:14;9.40;99.90
30134;DHT22;16946;49.984;10.672;2023-04-25T00:16:45;9.40;99.90
30134;DHT22;16946;49.984;10.672;2023-04-25T00:17:16;9.50;99.90
30134;DHT22;16946;49.984;10.672;2023-04-25T00:17:47;9.50;99.90
30134;DHT22;16946;49.984;10.672;2023-04-25T00:18:18;9.50;99.90
30134;DHT22;16946;49.984;10.672;2023-04-25T00:18:49;9.50;99.90
30134;DHT22;16946;49.984;10.672;2023-04-25T00:19:21;9.50;99.90
30134;DHT22;16946;49.984;10.672;2023-04-25T00:19:52;9.50;99.90
30134;DHT22;16946;49.984;10.672;2023-04-25T00:20:22;9.50;99.90
30134;DHT22;16946;49.984;10.672;2023-04-25T00:20:53;9.60;99.90
30134;DHT22;16946;49.984;10.672;2023-04-25T00:21:24;9.60;99.90
30134;DHT22;16946;49.984;10.672;2023-04-25T00:21:55;9.60;99.90
30134;DHT22;16946;49.984;10.672;2023-04-25T00:22:25;9.60;99.90
30134;DHT22;16946;49.984;10.672;2023-04-25T00:22:56;9.60;99.90
30134;DHT22;16946;49.984;10.672;2023-04-25T00:23:27;9.60;99.90
30134;DHT22;16946;49.984;10.672;2023-04-25T00:23:57;9.70;99.90
30134;DHT22;16946;49.984;10.672;2023-04-25T00:24:28;9.70;99.90
30134;DHT22;16946;49.984;10.672;2023-04-25T00:24:58;9.60;99.90
30134;DHT22;16946;49.984;10.672;2023-04-25T00:25:30;9.60;99.90
30134;DHT22;16946;49.984;10.672;2023-04-25T00:26:01;9.60;99.90
30134;DHT22;16946;49.984;10.672;2023-04-25T00:26:31;9.60;99.90
30134;DHT22;16946;49.984;10.672;2023-04-25T00:27:02;9.60;99.90
30134;DHT22;16946;49.984;10.672;2023-04-25T00:27:33;9.60;99.90
30134;DHT22;16946;49.984;10.672;2023-04-25T00:28:03;9.60;99.90
30134;DHT22;16946;49.984;10.672;2023-04-25T00:28:34;9.70;99.90
30134;DHT22;16946;49.984;10.672;2023-04-25T00:29:04;9.70;99.90
30134;DHT22;16946;49.984;10.672;2023-04-25T00:29:35;9.60;99.90
30134;DHT22;16946;49.984;10.672;2023-04-25T00:30:06;9.60;99.90
30134;DHT22;16946;49.984;10.672;2023-04-25T00:30:36;9.60;99.90
30134;DHT22;16946;49.984;10.672;2023-04-25T00:31:07;9.60;99.90
30134;DHT22;16946;49.984;10.672;2023-04-25T00:31:38;9.50;99.90
30134;DHT22;16946;49.984;10.672;2023-04-25T00:32:08;9.50;99.90
30134;DHT22;16946;49.984;10.672;2023-04-25T00:32:39;9.50;99.90
30134;DHT22;16946;49.984;10.672;2023-04-25T00:33:09;9.50;99.90
30134;DHT22;16946;49.984;10.672;2023-04-25T00:33:40;9.50;99.90
30134;DHT22;16946;49.984;10.672;2023-04-25T00:34:11;9.50;99.90
30134;DHT22;16946;49.984;10.672;2023-04-25T00:34:41;9.50;99.90
30134;DHT22;16946;49.984;10.672;2023-04-25T00:35:12;9.60;99.90
30134;DHT22;16946;49.984;10.672;2023-04-25T00:35:42;9.60;99.90
30134;DHT22;16946;49.984;10.672;2023-04-25T00:36:13;9.50;99.90
30134;DHT22;16946;49.984;10.672;2023-04-25T00:36:44;9.50;99.90
30134;DHT22;16946;49.984;10.672;2023-04-25T00:37:15;9.50;99.90
30134;DHT22;16946;49.984;10.672;2023-04-25T00:37:46;9.50;99.90
30134;DHT22;16946;49.984;10.672;2023-04-25T00:38:16;9.50;99.90
30134;DHT22;16946;49.984;10.672;2023-04-25T00:38:47;9.50;99.90
30134;DHT22;16946;49.984;10.672;2023-04-25T00:39:17;9.50;99.90
30134;DHT22;16946;49.984;10.672;2023-04-25T00:39:48;9.50;99.90
30134;DHT22;16946;49.984;10.672;2023-04-25T00:40:18;9.60;99.90
30134;DHT22;16946;49.984;10.672;2023-04-25T00:40:49;9.60;99.90
30134;DHT22;16946;49.984;10.672;2023-04-25T00:41:20;9.60;99.90
30134;DHT22;16946;49.984;10.672;2023-04-25T00:41:50;9.60;99.90
30134;DHT22;16946;49.984;10.672;2023-04-25T00:42:24;9.60;99.90
30134;DHT22;16946;49.984;10.672;2023-04-25T00:42:55;9.70;99.90
30134;DHT22;16946;49.984;10.672;2023-04-25T00:43:27;9.70;99.90
30134;DHT22;16946;49.984;10.672;2023-04-25T00:43:57;9.70;99.90
30134;DHT22;16946;49.984;10.672;2023-04-25T00:44:30;9.70;99.90
30134;DHT22;16946;49.984;10.672;2023-04-25T00:45:04;9.70;99.90
30134;DHT22;16946;49.984;10.672;2023-04-25T00:45:38;9.70;99.90
30134;DHT22;16946;49.984;10.672;2023-04-25T00:46:09;9.70;99.90
30134;DHT22;16946;49.984;10.672;2023-04-25T00:46:40;9.70;99.90
30134;DHT22;16946;49.984;10.672;2023-04-25T00:47:11;9.70;99.90
30134;DHT22;16946;49.984;10.672;2023-04-25T00:47:41;9.70;99.90
30134;DHT22;16946;49.984;10.672;2023-04-25T00:48:14;9.70;99.90
30134;DHT22;16946;49.984;10.672;2023-04-25T00:48:44;9.80;99.90
30134;DHT22;16946;49.984;10.672;2023-04-25T00:49:16;9.70;99.90
30134;DHT22;16946;49.984;10.672;2023-04-25T00:49:47;9.70;99.90
30134;DHT22;16946;49.984;10.672;2023-04-25T00:50:17;9.60;99.90
30134;DHT22;16946;49.984;10.672;2023-04-25T00:50:53;9.60;99.90
30134;DHT22;16946;49.984;10.672;2023-04-25T00:51:25;9.70;99.90
30134;DHT22;16946;49.984;10.672;2023-04-25T00:51:56;9.60;99.90
30134;DHT22;16946;49.984;10.672;2023-04-25T00:52:27;9.70;99.90
30134;DHT22;16946;49.984;10.672;2023-04-25T00:52:57;9.70;99.90
30134;DHT22;16946;49.984;10.672;2023-04-25T00:53:28;9.80;99.90
30134;DHT22;16946;49.984;10.672;2023-04-25T00:54:00;9.80;99.90
30134;DHT22;16946;49.984;10.672;2023-04-25T00:54:31;9.80;99.90
30134;DHT22;16946;49.984;10.672;2023-04-25T00:55:02;9.80;99.90
30134;DHT22;16946;49.984;10.672;2023-04-25T00:55:33;9.90;99.90
30134;DHT22;16946;49.984;10.672;2023-04-25T00:56:05;9.90;99.90
30134;DHT22;16946;49.984;10.672;2023-04-25T00:56:36;9.90;99.90
30134;DHT22;16946;49.984;10.672;2023-04-25T00:57:06;9.90;99.90
30134;DHT22;16946;49.984;10.672;2023-04-25T00:57:37;9.90;99.90
30134;DHT22;16946;49.984;10.672;2023-04-25T00:58:08;9.90;99.90
30134;DHT22;16946;49.984;10.672;2023-04-25T00:58:40;9.80;99.90
30134;DHT22;16946;49.984;10.672;2023-04-25T00:59:11;9.80;99.90
30134;DHT22;16946;49.984;10.672;2023-04-25T00:59:45;9.70;99.90
30134;DHT22;16946;49.984;10.672;2023-04-25T01:00:17;9.70;99.90
30134;DHT22;16946;49.984;10.672;2023-04-25T01:00:50;9.70;99.90
30134;DHT22;16946;49.984;10.672;2023-04-25T01:01:22;9.80;99.90
30134;DHT22;16946;49.984;10.672;2023-04-25T01:01:53;9.80;99.90
30134;DHT22;16946;49.984;10.672;2023-04-25T01:02:24;9.80;99.90
30134;DHT22;16946;49.984;10.672;2023-04-25T01:02:55;9.70;99.90
30134;DHT22;16946;49.984;10.672;2023-04-25T01:03:26;9.70;99.90
30134;DHT22;16946;49.984;10.672;2023-04-25T01:03:59;9.70;99.90
30134;DHT22;16946;49.984;10.672;2023-04-25T01:04:31;9.70;99.90
30134;DHT22;16946;49.984;10.672;2023-04-25T01:05:02;9.70;99.90
30134;DHT22;16946;49.984;10.672;2023-04-25T01:05:33;9.70;99.90
30134;DHT22;16946;49.984;10.672;2023-04-25T01:06:03;9.70;99.90
30134;DHT22;16946;49.984;10.672;2023-04-25T01:06:34;9.70;99.90
30134;DHT22;16946;49.984;10.672;2023-04-25T01:07:05;9.70;99.90
30134;DHT22;16946;49.984;10.672;2023-04-25T01:07:36;9.70;99.90
30134;DHT22;16946;49.984;10.672;2023-04-25T01:08:07;9.80;99.90
30134;DHT22;16946;49.984;10.672;2023-04-25T01:08:38;9.80;99.90
30134;DHT22;16946;49.984;10.672;2023-04-25T01:09:09;9.80;99.90
30134;DHT22;16946;49.984;10.672;2023-04-25T01:09:41;9.80;99.90
30134;DHT22;16946;49.984;10.672;2023-04-25T01:10:11;9.80;99.90
30134;DHT22;16946;49.984;10.672;2023-04-25T01:10:42;9.80;99.90
30134;DHT22;16946;49.984;10.672;2023-04-25T01:11:12;9.80;99.90
30134;DHT22;16946;49.984;10.672;2023-04-25T01:11:43;9.80;99.90
30134;DHT22;16946;49.984;10.672;2023-04-25T01:12:13;9.80;99.90
30134;DHT22;16946;49.984;10.672;2023-04-25T01:12:44;9.70;99.90
30134;DHT22;16946;49.984;10.672;2023-04-25T01:13:15;9.70;99.90
30134;DHT22;16946;49.984;10.672;2023-04-25T01:13:46;9.80;99.90
30134;DHT22;16946;49.984;10.672;2023-04-25T01:14:16;9.80;99.90
30134;DHT22;16946;49.984;10.672;2023-04-25T01:14:47;9.80;99.90
30134;DHT22;16946;49.984;10.672;2023-04-25T01:15:18;9.80;99.90
30134;DHT22;16946;49.984;10.672;2023-04-25T01:15:48;9.70;99.90
30134;DHT22;16946;49.984;10.672;2023-04-25T01:16:19;9.70;99.90
30134;DHT22;16946;49.984;10.672;2023-04-25T01:16:49;9.60;99.90
30134;DHT22;16946;49.984;10.672;2023-04-25T01:17:20;9.50;99.90
30134;DHT22;16946;49.984;10.672;2023-04-25T01:17:51;9.50;99.90
30134;DHT22;16946;49.984;10.672;2023-04-25T01:18:23;9.50;99.90
30134;DHT22;16946;49.984;10.672;2023-04-25T01:18:54;9.50;99.90
30134;DHT22;16946;49.984;10.672;2023-04-25T01:19:25;9.50;99.90
30134;DHT22;16946;49.984;10.672;2023-04-25T01:19:56;9.40;99.90
30134;DHT22;16946;49.984;10.672;2023-04-25T01:20:26;9.40;99.90
30134;DHT22;16946;49.984;10.672;2023-04-25T01:21:17;9.40;99.90
30134;DHT22;16946;49.984;10.672;2023-04-25T01:21:48;9.30;99.90
30134;DHT22;16946;49.984;10.672;2023-04-25T01:22:18;9.30;99.90
30134;DHT22;16946;49.984;10.672;2023-04-25T01:22:50;9.30;99.90
30134;DHT22;16946;49.984;10.672;2023-04-25T01:23:22;9.30;99.90
30134;DHT22;16946;49.984;10.672;2023-04-25T01:23:53;9.30;99.90
30134;DHT22;16946;49.984;10.672;2023-04-25T01:24:24;9.30;99.90
30134;DHT22;16946;49.984;10.672;2023-04-25T01:24:56;9.40;99.90
30134;DHT22;16946;49.984;10.672;2023-04-25T01:25:27;9.30;99.90
30134;DHT22;16946;49.984;10.672;2023-04-25T01:25:57;9.40;99.90
30134;DHT22;16946;49.984;10.672;2023-04-25T01:26:28;9.40;99.90
30134;DHT22;16946;49.984;10.672;2023-04-25T01:27:00;9.30;99.90
30134;DHT22;16946;49.984;10.672;2023-04-25T01:27:31;9.40;99.90
30134;DHT22;16946;49.984;10.672;2023-04-25T01:28:02;9.40;99.90
30134;DHT22;16946;49.984;10.672;2023-04-25T01:28:33;9.40;99.90
30134;DHT22;16946;49.984;10.672;2023-04-25T01:29:04;9.50;99.90
30134;DHT22;16946;49.984;10.672;2023-04-25T01:29:35;9.50;99.90
30134;DHT22;16946;49.984;10.672;2023-04-25T01:30:07;9.50;99.90
30134;DHT22;16946;49.984;10.672;2023-04-25T01:30:38;9.50;99.90
30134;DHT22;16946;49.984;10.672;2023-04-25T01:31:09;9.50;99.90
30134;DHT22;16946;49.984;10.672;2023-04-25T01:31:40;9.50;99.90
30134;DHT22;16946;49.984;10.672;2023-04-25T01:32:11;9.40;99.90
30134;DHT22;16946;49.984;10.672;2023-04-25T01:32:42;9.40;99.90
30134;DHT22;16946;49.984;10.672;2023-04-25T01:33:14;9.50;99.90
30134;DHT22;16946;49.984;10.672;2023-04-25T01:33:45;9.50;99.90
30134;DHT22;16946;49.984;10.672;2023-04-25T01:34:16;9.50;99.90
30134;DHT22;16946;49.984;10.672;2023-04-25T01:34:46;9.50;99.90
30134;DHT22;16946;49.984;10.672;2023-04-25T01:35:17;9.50;99.90
30134;DHT22;16946;49.984;10.672;2023-04-25T01:35:47;9.50;99.90
30134;DHT22;16946;49.984;10.672;2023-04-25T01:36:18;9.50;99.90
30134;DHT22;16946;49.984;10.672;2023-04-25T01:36:50;9.50;99.90
30134;DHT22;16946;49.984;10.672;2023-04-25T01:37:20;9.50;99.90
30134;DHT22;16946;49.984;10.672;2023-04-25T01:37:51;9.50;99.90
30134;DHT22;16946;49.984;10.672;2023-04-25T01:38:22;9.50;99.90
30134;DHT22;16946;49.984;10.672;2023-04-25T01:38:53;9.50;99.90
30134;DHT22;16946;49.984;10.672;2023-04-25T01:39:24;9.50;99.90
30134;DHT22;16946;49.984;10.672;2023-04-25T01:39:55;9.50;99.90
30134;DHT22;16946;49.984;10.672;2023-04-25T01:40:27;9.50;99.90
30134;DHT22;16946;49.984;10.672;2023-04-25T01:40:57;9.50;99.90
30134;DHT22;16946;49.984;10.672;2023-04-25T01:41:28;9.60;99.90
30134;DHT22;16946;49.984;10.672;2023-04-25T01:42:00;9.60;99.90
30134;DHT22;16946;49.984;10.672;2023-04-25T01:42:31;9.50;99.90
30134;DHT22;16946;49.984;10.672;2023-04-25T01:43:02;9.60;99.90
30134;DHT22;16946;49.984;10.672;2023-04-25T01:43:33;9.60;99.90
30134;DHT22;16946;49.984;10.672;2023-04-25T01:44:04;9.50;99.90
30134;DHT22;16946;49.984;10.672;2023-04-25T01:44:34;9.50;99.90
30134;DHT22;16946;49.984;10.672;2023-04-25T01:45:06;9.50;99.90
30134;DHT22;16946;49.984;10.672;2023-04-25T01:45:38;9.50;99.90
30134;DHT22;16946;49.984;10.672;2023-04-25T01:46:13;9.50;99.90
30134;DHT22;16946;49.984;10.672;2023-04-25T01:46:43;9.50;99.90
30134;DHT22;16946;49.984;10.672;2023-04-25T01:47:14;9.60;99.90
30134;DHT22;16946;49.984;10.672;2023-04-25T01:47:45;9.60;99.90
30134;DHT22;16946;49.984;10.672;2023-04-25T01:48:19;9.60;99.90
30134;DHT22;16946;49.984;10.672;2023-04-25T01:48:49;9.70;99.90
30134;DHT22;16946;49.984;10.672;2023-04-25T01:49:20;9.70;99.90
30134;DHT22;16946;49.984;10.672;2023-04-25T01:49:51;9.70;99.90
30134;DHT22;16946;49.984;10.672;2023-04-25T01:50:23;9.60;99.90
30134;DHT22;16946;49.984;10.672;2023-04-25T01:50:53;9.60;99.90
30134;DHT22;16946;49.984;10.672;2023-04-25T01:51:24;9.60;99.90
30134;DHT22;16946;49.984;10.672;2023-04-25T01:51:54;9.60;99.90
30134;DHT22;16946;49.984;10.672;2023-04-25T01:52:25;9.60;99.90
30134;DHT22;16946;49.984;10.672;2023-04-25T01:52:56;9.60;99.90
30134;DHT22;16946;49.984;10.672;2023-04-25T01:53:27;9.50;99.90
30134;DHT22;16946;49.984;10.672;2023-04-25T01:53:58;9.50;99.90
30134;DHT22;16946;49.984;10.672;2023-04-25T01:54:28;9.50;99.90
30134;DHT22;16946;49.984;10.672;2023-04-25T01:55:01;9.40;99.90
30134;DHT22;16946;49.984;10.672;2023-04-25T01:55:32;9.40;99.90
30134;DHT22;16946;49.984;10.672;2023-04-25T01:56:02;9.40;99.90
30134;DHT22;16946;49.984;10.672;2023-04-25T01:56:37;9.40;99.90
30134;DHT22;16946;49.984;10.672;2023-04-25T01:57:07;9.40;99.90
30134;DHT22;16946;49.984;10.672;2023-04-25T01:57:38;9.40;99.90
30134;DHT22;16946;49.984;10.672;2023-04-25T01:58:09;9.40;99.90
30134;DHT22;16946;49.984;10.672;2023-04-25T01:58:40;9.40;99.90
30134;DHT22;16946;49.984;10.672;2023-04-25T01:59:10;9.40;99.90
30134;DHT22;16946;49.984;10.672;2023-04-25T01:59:41;9.50;99.90
30134;DHT22;16946;49.984;10.672;2023-04-25T02:00:12;9.50;99.90
30134;DHT22;16946;49.984;10.672;2023-04-25T02:00:43;9.50;99.90
30134;DHT22;16946;49.984;10.672;2023-04-25T02:01:13;9.50;99.90
30134;DHT22;16946;49.984;10.672;2023-04-25T02:01:44;9.50;99.90
30134;DHT22;16946;49.984;10.672;2023-04-25T02:02:15;9.50;99.90
30134;DHT22;16946;49.984;10.672;2023-04-25T02:02:45;9.50;99.90
30134;DHT22;16946;49.984;10.672;2023-04-25T02:03:16;9.50;99.90
30134;DHT22;16946;49.984;10.672;2023-04-25T02:03:47;9.50;99.90
30134;DHT22;16946;49.984;10.672;2023-04-25T02:04:17;9.50;99.90
30134;DHT22;16946;49.984;10.672;2023-04-25T02:04:48;9.50;99.90
30134;DHT22;16946;49.984;10.672;2023-04-25T02:05:18;9.50;99.90
30134;DHT22;16946;49.984;10.672;2023-04-25T02:05:49;9.50;99.90
30134;DHT22;16946;49.984;10.672;2023-04-25T02:06:20;9.50;99.90
30134;DHT22;16946;49.984;10.672;2023-04-25T02:06:50;9.50;99.90
30134;DHT22;16946;49.984;10.672;2023-04-25T02:07:21;9.50;99.90
30134;DHT22;16946;49.984;10.672;2023-04-25T02:07:51;9.50;99.90
30134;DHT22;16946;49.984;10.672;2023-04-25T02:08:22;9.50;99.90
30134;DHT22;16946;49.984;10.672;2023-04-25T02:08:52;9.40;99.90
30134;DHT22;16946;49.984;10.672;2023-04-25T02:09:23;9.40;99.90
30134;DHT22;16946;49.984;10.672;2023-04-25T02:09:53;9.40;99.90
30134;DHT22;16946;49.984;10.672;2023-04-25T02:10:24;9.40;99.90
30134;DHT22;16946;49.984;10.672;2023-04-25T02:10:54;9.40;99.90
30134;DHT22;16946;49.984;10.672;2023-04-25T02:11:25;9.30;99.90
30134;DHT22;16946;49.984;10.672;2023-04-25T02:11:56;9.30;99.90
30134;DHT22;16946;49.984;10.672;2023-04-25T02:12:27;9.20;99.90
30134;DHT22;16946;49.984;10.672;2023-04-25T02:12:58;9.30;99.90
30134;DHT22;16946;49.984;10.672;2023-04-25T02:13:28;9.20;99.90
30134;DHT22;16946;49.984;10.672;2023-04-25T02:13:59;9.30;99.90
30134;DHT22;16946;49.984;10.672;2023-04-25T02:14:30;9.30;99.90
30134;DHT22;16946;49.984;10.672;2023-04-25T02:15:00;9.40;99.90
30134;DHT22;16946;49.984;10.672;2023-04-25T02:15:31;9.40;99.90
30134;DHT22;16946;49.984;10.672;2023-04-25T02:16:02;9.40;99.90
30134;DHT22;16946;49.984;10.672;2023-04-25T02:16:32;9.40;99.90
30134;DHT22;16946;49.984;10.672;2023-04-25T02:17:03;9.40;99.90
30134;DHT22;16946;49.984;10.672;2023-04-25T02:17:34;9.40;99.90
30134;DHT22;16946;49.984;10.672;2023-04-25T02:18:04;9.40;99.90
30134;DHT22;16946;49.984;10.672;2023-04-25T02:18:36;9.40;99.90
30134;DHT22;16946;49.984;10.672;2023-04-25T02:19:07;9.40;99.90
30134;DHT22;16946;49.984;10.672;2023-04-25T02:19:38;9.40;99.90
30134;DHT22;16946;49.984;10.672;2023-04-25T02:20:09;9.40;99.90
30134;DHT22;16946;49.984;10.672;2023-04-25T02:20:40;9.40;99.90
30134;DHT22;16946;49.984;10.672;2023-04-25T02:21:10;9.40;99.90
30134;DHT22;16946;49.984;10.672;2023-04-25T02:21:41;9.30;99.90
30134;DHT22;16946;49.984;10.672;2023-04-25T02:22:12;9.30;99.90
30134;DHT22;16946;49.984;10.672;2023-04-25T02:22:43;9.30;99.90
30134;DHT22;16946;49.984;10.672;2023-04-25T02:23:13;9.30;99.90
30134;DHT22;16946;49.984;10.672;2023-04-25T02:23:45;9.30;99.90
30134;DHT22;16946;49.984;10.672;2023-04-25T02:24:19;9.30;99.90
30134;DHT22;16946;49.984;10.672;2023-04-25T02:24:49;9.30;99.90
30134;DHT22;16946;49.984;10.672;2023-04-25T02:25:20;9.40;99.90
30134;DHT22;16946;49.984;10.672;2023-04-25T02:25:51;9.30;99.90
30134;DHT22;16946;49.984;10.672;2023-04-25T02:26:22;9.40;99.90
30134;DHT22;16946;49.984;10.672;2023-04-25T02:26:54;9.40;99.90
30134;DHT22;16946;49.984;10.672;2023-04-25T02:27:26;9.40;99.90
30134;DHT22;16946;49.984;10.672;2023-04-25T02:27:56;9.30;99.90
30134;DHT22;16946;49.984;10.672;2023-04-25T02:28:27;9.30;99.90
30134;DHT22;16946;49.984;10.672;2023-04-25T02:28:57;9.30;99.90
30134;DHT22;16946;49.984;10.672;2023-04-25T02:29:28;9.30;99.90
30134;DHT22;16946;49.984;10.672;2023-04-25T02:29:59;9.30;99.90
30134;DHT22;16946;49.984;10.672;2023-04-25T02:30:29;9.20;99.90
30134;DHT22;16946;49.984;10.672;2023-04-25T02:31:00;9.20;99.90
30134;DHT22;16946;49.984;10.672;2023-04-25T02:31:30;9.20;99.90
30134;DHT22;16946;49.984;10.672;2023-04-25T02:32:01;9.30;99.90
30134;DHT22;16946;49.984;10.672;2023-04-25T02:32:32;9.30;99.90
30134;DHT22;16946;49.984;10.672;2023-04-25T02:33:04;9.30;99.90
30134;DHT22;16946;49.984;10.672;2023-04-25T02:33:35;9.30;99.90
30134;DHT22;16946;49.984;10.672;2023-04-25T02:34:05;9.20;99.90
30134;DHT22;16946;49.984;10.672;2023-04-25T02:34:36;9.10;99.90
30134;DHT22;16946;49.984;10.672;2023-04-25T02:35:07;9.10;99.90
30134;DHT22;16946;49.984;10.672;2023-04-25T02:35:38;9.10;99.90
30134;DHT22;16946;49.984;10.672;2023-04-25T02:36:08;9.10;99.90
30134;DHT22;16946;49.984;10.672;2023-04-25T02:36:39;9.00;99.90
30134;DHT22;16946;49.984;10.672;2023-04-25T02:37:10;9.10;99.90
30134;DHT22;16946;49.984;10.672;2023-04-25T02:37:40;9.10;99.90
30134;DHT22;16946;49.984;10.672;2023-04-25T02:38:11;9.10;99.90
30134;DHT22;16946;49.984;10.672;2023-04-25T02:38:41;9.10;99.90
30134;DHT22;16946;49.984;10.672;2023-04-25T02:39:12;9.10;99.90
30134;DHT22;16946;49.984;10.672;2023-04-25T02:39:42;9.10;99.90
30134;DHT22;16946;49.984;10.672;2023-04-25T02:40:13;9.10;99.90
30134;DHT22;16946;49.984;10.672;2023-04-25T02:40:43;9.10;99.90
30134;DHT22;16946;49.984;10.672;2023-04-25T02:41:14;9.00;99.90
30134;DHT22;16946;49.984;10.672;2023-04-25T02:41:45;9.10;99.90
30134;DHT22;16946;49.984;10.672;2023-04-25T02:42:15;9.00;99.90
30134;DHT22;16946;49.984;10.672;2023-04-25T02:42:46;9.00;99.90
30134;DHT22;16946;49.984;10.672;2023-04-25T02:43:16;9.00;99.90
30134;DHT22;16946;49.984;10.672;2023-04-25T02:43:47;9.00;99.90
30134;DHT22;16946;49.984;10.672;2023-04-25T02:44:17;9.00;99.90
30134;DHT22;16946;49.984;10.672;2023-04-25T02:44:48;9.00;99.90
30134;DHT22;16946;49.984;10.672;2023-04-25T02:45:18;8.90;99.90
30134;DHT22;16946;49.984;10.672;2023-04-25T02:45:49;9.00;99.90
30134;DHT22;16946;49.984;10.672;2023-04-25T02:46:20;9.00;99.90
30134;DHT22;16946;49.984;10.672;2023-04-25T02:46:51;9.00;99.90
30134;DHT22;16946;49.984;10.672;2023-04-25T02:47:21;9.00;99.90
30134;DHT22;16946;49.984;10.672;2023-04-25T02:47:52;8.90;99.90
30134;DHT22;16946;49.984;10.672;2023-04-25T02:48:22;9.00;99.90
30134;DHT22;16946;49.984;10.672;2023-04-25T02:48:53;9.00;99.90
30134;DHT22;16946;49.984;10.672;2023-04-25T02:49:23;9.00;99.90
30134;DHT22;16946;49.984;10.672;2023-04-25T02:49:54;9.00;99.90
30134;DHT22;16946;49.984;10.672;2023-04-25T02:50:25;9.00;99.90
30134;DHT22;16946;49.984;10.672;2023-04-25T02:50:55;9.00;99.90
30134;DHT22;16946;49.984;10.672;2023-04-25T02:51:26;9.00;99.90
30134;DHT22;16946;49.984;10.672;2023-04-25T02:51:56;9.00;99.90
30134;DHT22;16946;49.984;10.672;2023-04-25T02:52:27;9.00;99.90
30134;DHT22;16946;49.984;10.672;2023-04-25T02:52:57;8.90;99.90
30134;DHT22;16946;49.984;10.672;2023-04-25T02:53:28;8.90;99.90
30134;DHT22;16946;49.984;10.672;2023-04-25T02:53:58;8.90;99.90
30134;DHT22;16946;49.984;10.672;2023-04-25T02:54:30;8.90;99.90
30134;DHT22;16946;49.984;10.672;2023-04-25T02:55:00;8.80;99.90
30134;DHT22;16946;49.984;10.672;2023-04-25T02:55:31;8.80;99.90
30134;DHT22;16946;49.984;10.672;2023-04-25T02:56:01;8.70;99.90
30134;DHT22;16946;49.984;10.672;2023-04-25T02:56:32;8.70;99.90
30134;DHT22;16946;49.984;10.672;2023-04-25T02:57:02;8.70;99.90
30134;DHT22;16946;49.984;10.672;2023-04-25T02:57:33;8.80;99.90
30134;DHT22;16946;49.984;10.672;2023-04-25T02:58:04;8.70;99.90
30134;DHT22;16946;49.984;10.672;2023-04-25T02:58:35;8.70;99.90
30134;DHT22;16946;49.984;10.672;2023-04-25T02:59:05;8.70;99.90
30134;DHT22;16946;49.984;10.672;2023-04-25T02:59:36;8.60;99.90
30134;DHT22;16946;49.984;10.672;2023-04-25T03:00:07;8.60;99.90
30134;DHT22;16946;49.984;10.672;2023-04-25T03:00:37;8.50;99.90
30134;DHT22;16946;49.984;10.672;2023-04-25T03:01:08;8.50;99.90
30134;DHT22;16946;49.984;10.672;2023-04-25T03:01:39;8.60;99.90
30134;DHT22;16946;49.984;10.672;2023-04-25T03:02:09;8.60;99.90
30134;DHT22;16946;49.984;10.672;2023-04-25T03:02:40;8.60;99.90
30134;DHT22;16946;49.984;10.672;2023-04-25T03:03:11;8.60;99.90
30134;DHT22;16946;49.984;10.672;2023-04-25T03:03:41;8.60;99.90
30134;DHT22;16946;49.984;10.672;2023-04-25T03:04:12;8.60;99.90
30134;DHT22;16946;49.984;10.672;2023-04-25T03:04:42;8.60;99.90
30134;DHT22;16946;49.984;10.672;2023-04-25T03:05:13;8.60;99.90
30134;DHT22;16946;49.984;10.672;2023-04-25T03:05:44;8.60;99.90
30134;DHT22;16946;49.984;10.672;2023-04-25T03:06:15;8.60;99.90
30134;DHT22;16946;49.984;10.672;2023-04-25T03:06:46;8.60;99.90
30134;DHT22;16946;49.984;10.672;2023-04-25T03:07:17;8.70;99.90
30134;DHT22;16946;49.984;10.672;2023-04-25T03:07:47;8.80;99.90
30134;DHT22;16946;49.984;10.672;2023-04-25T03:08:18;8.70;99.90
30134;DHT22;16946;49.984;10.672;2023-04-25T03:08:49;8.70;99.90
30134;DHT22;16946;49.984;10.672;2023-04-25T03:09:19;8.70;99.90
30134;DHT22;16946;49.984;10.672;2023-04-25T03:09:50;8.70;99.90
30134;DHT22;16946;49.984;10.672;2023-04-25T03:10:20;8.80;99.90
30134;DHT22;16946;49.984;10.672;2023-04-25T03:10:51;8.80;99.90
30134;DHT22;16946;49.984;10.672;2023-04-25T03:11:25;8.80;99.90
30134;DHT22;16946;49.984;10.672;2023-04-25T03:11:56;8.80;99.90
30134;DHT22;16946;49.984;10.672;2023-04-25T03:12:26;8.80;99.90
30134;DHT22;16946;49.984;10.672;2023-04-25T03:12:57;8.70;99.90
30134;DHT22;16946;49.984;10.672;2023-04-25T03:13:27;8.70;99.90
30134;DHT22;16946;49.984;10.672;2023-04-25T03:14:00;8.70;99.90
30134;DHT22;16946;49.984;10.672;2023-04-25T03:14:30;8.70;99.90
30134;DHT22;16946;49.984;10.672;2023-04-25T03:15:01;8.70;99.90
30134;DHT22;16946;49.984;10.672;2023-04-25T03:15:31;8.80;99.90